Time;durP1;ratioP1;P1;durP2;ratioP2;P2;SDS_P1;SDS_P2;PMS_P1;PMS_P2;Temp;Humidity;BMP_temperature;BMP_pressure;BME280_temperature;BME280_humidity;BME280_pressure;Samples;Min_cycle;Max_cycle;Signal;HPM_P1;HPM_P2
2022/08/10 00:09:37;;;;;;;5.32;4.82;;;13.80;99.90;;;;;;4857384;23;20046;-79
2022/08/10 00:12:03;;;;;;;5.95;5.35;;;13.80;99.90;;;;;;4923538;28;20050;-80
2022/08/10 00:14:28;;;;;;;5.97;5.38;;;13.80;99.90;;;;;;4939442;29;20049;-80
2022/08/10 00:16:54;;;;;;;7.65;5.40;;;13.90;99.90;;;;;;4937907;29;20046;-80
2022/08/10 00:19:19;;;;;;;6.70;5.65;;;13.90;99.90;;;;;;4938316;29;20134;-80
2022/08/10 00:21:46;;;;;;;6.68;5.05;;;14.00;99.90;;;;;;4938518;29;20035;-80
2022/08/10 00:24:12;;;;;;;5.53;5.03;;;14.00;99.90;;;;;;4923374;29;20043;-80
2022/08/10 00:26:37;;;;;;;6.40;5.30;;;14.10;99.90;;;;;;4921228;29;20039;-80
2022/08/10 00:29:03;;;;;;;6.22;5.63;;;14.10;99.90;;;;;;4921200;29;20434;-80
2022/08/10 00:31:28;;;;;;;7.10;5.10;;;14.10;99.90;;;;;;4943130;29;20047;-80
2022/08/10 00:33:54;;;;;;;6.70;5.88;;;14.10;99.90;;;;;;4939186;29;20046;-80
2022/08/10 00:36:19;;;;;;;7.63;5.97;;;14.10;99.90;;;;;;4922566;29;20035;-80
2022/08/10 00:38:45;;;;;;;7.47;6.60;;;14.00;99.90;;;;;;4937949;29;20058;-80
2022/08/10 00:41:11;;;;;;;7.07;6.15;;;14.10;99.90;;;;;;4938811;29;20047;-80
2022/08/10 00:43:36;;;;;;;6.78;6.13;;;14.10;99.90;;;;;;4923389;28;20495;-80
2022/08/10 00:46:02;;;;;;;6.03;5.43;;;14.20;99.90;;;;;;4923394;29;20039;-80
2022/08/10 00:48:29;;;;;;;7.18;6.30;;;14.20;99.90;;;;;;4921421;29;20043;-80
2022/08/10 00:50:56;;;;;;;7.75;6.25;;;14.20;99.90;;;;;;4938617;29;20039;-80
2022/08/10 00:53:22;;;;;;;7.18;6.47;;;14.20;99.90;;;;;;4923088;29;20507;-80
2022/08/10 00:55:48;;;;;;;8.63;6.55;;;14.20;99.90;;;;;;4938759;29;20050;-80
2022/08/10 00:58:14;;;;;;;6.80;5.97;;;14.20;99.90;;;;;;4935638;29;20086;-80
2022/08/10 01:00:41;;;;;;;6.68;5.97;;;14.20;99.90;;;;;;4938535;29;20039;-80
2022/08/10 01:03:07;;;;;;;7.45;6.68;;;14.10;99.90;;;;;;4938596;28;20500;-80
2022/08/10 01:05:41;;;;;;;8.80;7.30;;;14.10;99.90;;;;;;4938394;29;20053;-80
2022/08/10 01:08:31;;;;;;;8.18;6.95;;;14.10;99.90;;;;;;4937928;29;20392;-80
2022/08/10 01:11:10;;;;;;;7.68;6.88;;;14.20;99.90;;;;;;4930687;29;20050;-80
2022/08/10 01:14:05;;;;;;;8.52;7.20;;;14.10;99.90;;;;;;4936094;29;20039;-80
2022/08/10 01:16:36;;;;;;;7.10;6.40;;;14.20;99.90;;;;;;4921178;29;20038;-81
2022/08/10 01:19:28;;;;;;;6.68;5.97;;;14.20;99.90;;;;;;4919512;29;20078;-80
2022/08/10 01:22:38;;;;;;;6.53;5.93;;;14.10;99.90;;;;;;4946442;29;20407;-80
2022/08/10 01:25:27;;;;;;;7.00;6.30;;;14.10;99.90;;;;;;4924589;29;20054;-79
2022/08/10 01:28:06;;;;;;;7.35;6.43;;;13.90;99.90;;;;;;4930906;29;20427;-79
2022/08/10 01:30:33;;;;;;;6.68;5.55;;;13.80;99.90;;;;;;4937967;29;20571;-79
2022/08/10 01:33:18;;;;;;;7.13;6.43;;;13.70;99.90;;;;;;4922203;29;20045;-79
2022/08/10 01:36:09;;;;;;;7.20;6.50;;;13.70;99.90;;;;;;4921477;29;20499;-79
2022/08/10 01:38:41;;;;;;;10.60;7.95;;;13.60;99.90;;;;;;4935373;29;20118;-79
2022/08/10 01:41:10;;;;;;;8.73;7.82;;;13.50;99.90;;;;;;4938036;29;20423;-79
2022/08/10 01:43:41;;;;;;;9.88;8.45;;;13.50;99.90;;;;;;4937974;29;20071;-79
2022/08/10 01:46:10;;;;;;;8.25;7.45;;;13.50;99.90;;;;;;4938021;29;20125;-80
2022/08/10 01:48:42;;;;;;;9.27;8.13;;;13.50;99.90;;;;;;4932692;29;20046;-80
2022/08/10 01:51:31;;;;;;;8.40;7.53;;;13.50;99.90;;;;;;4935366;29;20047;-79
2022/08/10 01:54:04;;;;;;;8.15;7.35;;;13.50;99.90;;;;;;4937782;29;20035;-79
2022/08/10 01:56:36;;;;;;;8.80;7.90;;;13.40;99.90;;;;;;4924009;28;20039;-79
2022/08/10 01:59:26;;;;;;;8.02;7.15;;;13.40;99.90;;;;;;4922704;29;20129;-79
2022/08/10 02:01:57;;;;;;;9.85;7.63;;;13.30;99.90;;;;;;4936876;29;20035;-79
2022/08/10 02:04:26;;;;;;;8.48;7.57;;;13.30;99.90;;;;;;4952839;29;20090;-79
2022/08/10 02:06:54;;;;;;;8.63;6.95;;;13.20;99.90;;;;;;4919759;29;20039;-79
2022/08/10 02:09:27;;;;;;;7.55;6.75;;;13.10;99.90;;;;;;4920655;29;20039;-79
2022/08/10 02:11:57;;;;;;;10.95;9.23;;;13.10;99.90;;;;;;4937315;29;20055;-79
2022/08/10 02:14:30;;;;;;;10.73;8.68;;;13.10;99.90;;;;;;4937694;29;20047;-80
2022/08/10 02:16:56;;;;;;;12.57;10.73;;;13.10;99.90;;;;;;4920058;29;20376;-80
2022/08/10 02:19:25;;;;;;;10.63;9.07;;;13.20;99.90;;;;;;4921796;28;20031;-79
2022/08/10 02:21:53;;;;;;;11.23;9.98;;;13.20;99.90;;;;;;4921375;29;20035;-79
2022/08/10 02:24:21;;;;;;;10.23;9.13;;;13.20;99.90;;;;;;4937224;29;20074;-80
2022/08/10 02:26:49;;;;;;;10.70;8.88;;;13.20;99.90;;;;;;4920343;29;20043;-79
2022/08/10 02:29:16;;;;;;;9.45;8.45;;;13.20;99.90;;;;;;4935543;29;20035;-79
2022/08/10 02:31:43;;;;;;;9.38;8.18;;;13.20;99.90;;;;;;4960609;28;20155;-80
2022/08/10 02:34:11;;;;;;;9.60;7.72;;;13.10;99.90;;;;;;4921248;29;20043;-80
2022/08/10 02:36:42;;;;;;;9.40;8.13;;;13.10;99.90;;;;;;4936679;29;20039;-79
2022/08/10 02:39:10;;;;;;;9.88;8.85;;;13.00;99.90;;;;;;4936016;29;20039;-79
2022/08/10 02:42:08;;;;;;;9.40;7.55;;;12.90;99.90;;;;;;4944885;29;20047;-79
2022/08/10 02:44:42;;;;;;;10.38;8.73;;;12.90;99.90;;;;;;4937180;29;20046;-79
2022/08/10 02:47:14;;;;;;;10.10;9.00;;;12.90;99.90;;;;;;4935968;29;20427;-79
2022/08/10 02:49:47;;;;;;;9.48;8.52;;;12.80;99.90;;;;;;4935938;28;20042;-79
2022/08/10 02:52:19;;;;;;;10.02;8.40;;;12.80;99.90;;;;;;4920115;29;20143;-80
2022/08/10 02:54:52;;;;;;;9.13;8.23;;;12.80;99.90;;;;;;4920580;29;20039;-80
2022/08/10 02:57:32;;;;;;;9.45;8.48;;;12.70;99.90;;;;;;4920027;29;20035;-79
2022/08/10 03:00:03;;;;;;;9.60;8.68;;;12.70;99.90;;;;;;4948911;28;20039;-79
2022/08/10 03:02:34;;;;;;;10.98;8.98;;;12.70;99.90;;;;;;4939947;29;20489;-79
2022/08/10 03:05:03;;;;;;;10.82;8.88;;;12.60;99.90;;;;;;4919348;29;20038;-79
2022/08/10 03:07:38;;;;;;;10.75;9.20;;;12.60;99.90;;;;;;4935592;28;20047;-79
2022/08/10 03:10:07;;;;;;;9.63;8.50;;;12.60;99.90;;;;;;4935662;29;20046;-79
2022/08/10 03:12:35;;;;;;;9.32;8.15;;;12.60;99.90;;;;;;4936800;29;20043;-79
2022/08/10 03:15:03;;;;;;;10.13;9.07;;;12.60;99.90;;;;;;4936646;29;20411;-79
2022/08/10 03:17:29;;;;;;;10.75;8.93;;;12.50;99.90;;;;;;4916245;29;20071;-79
2022/08/10 03:19:57;;;;;;;11.18;9.40;;;12.50;99.90;;;;;;4923739;29;20508;-79
2022/08/10 03:22:23;;;;;;;10.57;9.25;;;12.60;99.90;;;;;;4944590;29;20031;-79
2022/08/10 03:24:52;;;;;;;10.25;9.15;;;12.40;99.90;;;;;;4920570;29;20039;-79
2022/08/10 03:27:18;;;;;;;10.77;9.15;;;12.50;99.90;;;;;;4920252;29;20424;-79
2022/08/10 03:29:44;;;;;;;12.43;9.27;;;12.50;99.90;;;;;;4939638;28;20047;-79
2022/08/10 03:32:11;;;;;;;10.38;9.07;;;12.40;99.90;;;;;;4938010;28;20494;-79
2022/08/10 03:34:38;;;;;;;10.88;9.40;;;12.40;99.90;;;;;;4940098;29;20046;-79
2022/08/10 03:37:03;;;;;;;11.13;9.90;;;12.40;99.90;;;;;;4937407;29;20492;-80
2022/08/10 03:39:29;;;;;;;12.02;10.55;;;12.40;99.90;;;;;;4924007;28;20047;-79
2022/08/10 03:41:59;;;;;;;10.75;9.23;;;12.40;99.90;;;;;;4956403;29;20055;-79
2022/08/10 03:44:30;;;;;;;12.50;10.25;;;12.50;99.90;;;;;;4939849;29;20035;-79
2022/08/10 03:46:59;;;;;;;11.75;9.65;;;12.40;99.90;;;;;;4906119;29;20043;-79
2022/08/10 03:49:26;;;;;;;13.82;10.35;;;12.40;99.90;;;;;;4923817;29;20046;-79
2022/08/10 03:51:53;;;;;;;12.38;9.75;;;12.50;99.90;;;;;;4923875;29;20039;-79
2022/08/10 03:54:19;;;;;;;15.52;11.63;;;12.40;99.90;;;;;;4939304;29;20142;-79
2022/08/10 03:56:46;;;;;;;12.88;10.48;;;12.40;99.90;;;;;;4923899;29;20071;-79
2022/08/10 03:59:13;;;;;;;11.80;10.13;;;12.40;99.90;;;;;;4922456;29;20045;-79
2022/08/10 04:01:41;;;;;;;12.60;10.05;;;12.40;99.90;;;;;;4953784;29;20507;-79
2022/08/10 04:04:07;;;;;;;11.98;9.73;;;12.40;99.90;;;;;;4955709;29;20122;-79
2022/08/10 04:06:33;;;;;;;11.43;9.52;;;12.40;99.90;;;;;;4955710;29;20103;-79
2022/08/10 04:08:58;;;;;;;12.82;9.65;;;12.40;99.90;;;;;;4937672;29;20047;-79
2022/08/10 04:11:24;;;;;;;12.40;10.45;;;12.40;99.90;;;;;;4923415;29;20051;-80
2022/08/10 04:13:49;;;;;;;11.52;10.07;;;12.40;99.90;;;;;;4936185;29;20032;-80
2022/08/10 04:16:15;;;;;;;11.85;9.75;;;12.40;99.90;;;;;;4929133;29;20079;-79
2022/08/10 04:18:40;;;;;;;13.25;10.55;;;12.30;99.90;;;;;;4921726;29;20466;-79
2022/08/10 04:21:11;;;;;;;15.88;11.65;;;12.40;99.90;;;;;;4938772;29;20042;-79
2022/08/10 04:23:42;;;;;;;13.63;10.57;;;12.30;99.90;;;;;;4953136;29;20035;-79
2022/08/10 04:26:08;;;;;;;12.77;10.38;;;12.30;99.90;;;;;;4939362;29;20066;-79
2022/08/10 04:28:34;;;;;;;17.45;12.77;;;12.30;99.90;;;;;;4927087;29;20127;-79
2022/08/10 04:31:02;;;;;;;20.00;14.00;;;12.30;99.90;;;;;;4948051;29;20110;-79
2022/08/10 04:33:28;;;;;;;23.10;14.93;;;12.40;99.90;;;;;;4951467;29;20090;-79
2022/08/10 04:35:55;;;;;;;25.95;15.65;;;12.40;99.90;;;;;;4923361;29;20071;-79
2022/08/10 04:38:23;;;;;;;27.90;16.00;;;12.50;99.90;;;;;;4919964;29;20534;-80
2022/08/10 04:40:50;;;;;;;25.38;15.98;;;12.60;99.90;;;;;;4946141;28;20051;-80
2022/08/10 04:43:15;;;;;;;27.15;16.88;;;12.80;99.90;;;;;;4923005;28;20448;-80
2022/08/10 04:45:42;;;;;;;25.83;16.55;;;12.90;99.90;;;;;;4923372;29;20035;-79
2022/08/10 04:48:08;;;;;;;23.95;15.10;;;12.90;99.90;;;;;;4920054;29;20046;-79
2022/08/10 04:50:33;;;;;;;24.23;15.82;;;13.00;99.90;;;;;;4922798;29;20051;-79
2022/08/10 04:52:59;;;;;;;19.70;13.50;;;13.00;99.90;;;;;;4938110;29;20067;-79
2022/08/10 04:55:24;;;;;;;16.85;13.63;;;13.10;99.90;;;;;;4938798;29;20037;-79
2022/08/10 04:57:50;;;;;;;16.75;12.90;;;13.10;99.90;;;;;;4936655;29;20035;-79
2022/08/10 05:00:16;;;;;;;16.52;12.95;;;13.10;99.90;;;;;;4946485;28;20090;-79
2022/08/10 05:02:41;;;;;;;16.17;12.68;;;13.10;99.90;;;;;;4936446;29;20043;-80
2022/08/10 05:05:07;;;;;;;16.88;12.60;;;13.10;99.90;;;;;;4938684;29;20114;-80
2022/08/10 05:07:33;;;;;;;16.15;12.57;;;13.10;99.90;;;;;;4931383;29;20054;-80
2022/08/10 05:09:59;;;;;;;15.25;12.63;;;13.10;99.90;;;;;;4937234;29;20039;-80
2022/08/10 05:12:25;;;;;;;18.75;13.98;;;13.10;99.90;;;;;;4942483;29;20037;-80
2022/08/10 05:14:51;;;;;;;17.58;13.95;;;13.10;99.90;;;;;;4947769;29;20063;-80
2022/08/10 05:17:18;;;;;;;22.27;15.25;;;13.30;99.90;;;;;;4937297;29;20043;-80
2022/08/10 05:19:43;;;;;;;21.00;14.57;;;13.40;99.90;;;;;;4921274;28;20474;-79
2022/08/10 05:22:09;;;;;;;22.15;15.23;;;13.40;99.90;;;;;;4937421;29;20071;-80
2022/08/10 05:24:35;;;;;;;22.85;16.15;;;13.50;99.90;;;;;;4937344;29;20039;-79
2022/08/10 05:27:01;;;;;;;22.35;15.70;;;13.60;99.90;;;;;;4921840;29;20031;-80
2022/08/10 05:29:26;;;;;;;23.92;15.55;;;13.80;99.90;;;;;;4921503;29;20557;-80
2022/08/10 05:31:52;;;;;;;20.95;14.82;;;13.90;99.90;;;;;;4937028;29;20039;-80
2022/08/10 05:34:20;;;;;;;21.30;15.27;;;14.00;99.90;;;;;;4922381;29;20403;-80
2022/08/10 05:36:46;;;;;;;18.52;15.40;;;14.10;99.90;;;;;;4936873;29;20043;-79
2022/08/10 05:39:13;;;;;;;20.65;14.80;;;14.30;99.90;;;;;;4951090;28;20487;-79
2022/08/10 05:41:39;;;;;;;20.52;14.15;;;14.40;99.90;;;;;;4921799;29;20035;-82
2022/08/10 05:44:05;;;;;;;19.77;13.45;;;14.50;99.90;;;;;;4920451;29;20043;-80
2022/08/10 05:46:31;;;;;;;15.50;12.88;;;14.60;99.90;;;;;;4922441;29;20045;-81
2022/08/10 05:48:57;;;;;;;16.48;13.18;;;14.60;99.90;;;;;;4922004;29;20110;-83
2022/08/10 05:51:24;;;;;;;16.10;13.02;;;14.80;99.90;;;;;;4920598;29;20038;-78
2022/08/10 05:53:50;;;;;;;16.15;12.57;;;14.80;99.90;;;;;;4928645;29;20035;-78
2022/08/10 05:56:15;;;;;;;14.45;11.30;;;15.00;99.90;;;;;;4937556;29;20086;-78
2022/08/10 05:58:41;;;;;;;14.90;12.60;;;15.00;99.90;;;;;;4937392;29;20094;-78
2022/08/10 06:01:15;;;;;;;14.27;11.05;;;15.20;99.90;;;;;;4931394;29;20459;-78
2022/08/10 06:03:52;;;;;;;15.18;11.98;;;15.30;99.90;;;;;;4937265;29;20127;-79
2022/08/10 06:06:20;;;;;;;14.30;11.02;;;15.40;99.90;;;;;;4953038;29;20047;-80
2022/08/10 06:08:48;;;;;;;12.50;10.32;;;15.50;99.90;;;;;;4937415;29;20552;-80
2022/08/10 06:11:15;;;;;;;13.85;10.85;;;15.60;99.90;;;;;;4921030;29;20528;-80
2022/08/10 06:16:31;;;;;;;13.20;10.75;;;15.70;99.90;;;;;;4929557;29;20043;-79
2022/08/10 06:18:58;;;;;;;13.38;10.73;;;15.90;99.90;;;;;;4921640;29;20439;-80
2022/08/10 06:21:24;;;;;;;11.27;9.98;;;16.10;99.90;;;;;;4920733;29;20071;-82
2022/08/10 06:23:52;;;;;;;11.70;9.43;;;16.00;99.90;;;;;;4925709;29;20070;-79
2022/08/10 06:26:17;;;;;;;10.38;9.32;;;16.10;99.90;;;;;;4937308;29;20081;-83
2022/08/10 06:28:54;;;;;;;11.55;9.48;;;16.20;99.90;;;;;;4937135;29;20078;-83
2022/08/10 06:31:20;;;;;;;11.40;8.43;;;16.30;99.90;;;;;;4936957;29;20047;-81
2022/08/10 06:33:47;;;;;;;10.18;8.55;;;16.40;99.90;;;;;;4937481;29;20406;-82
2022/08/10 06:36:15;;;;;;;11.75;8.98;;;16.50;99.90;;;;;;4936684;29;20082;-82
2022/08/10 06:38:42;;;;;;;10.60;8.68;;;16.60;99.90;;;;;;4937070;29;20090;-83
2022/08/10 06:41:17;;;;;;;9.75;8.50;;;16.80;99.90;;;;;;4967178;23;20044;-82
2022/08/10 06:43:49;;;;;;;10.18;8.23;;;16.80;99.90;;;;;;4899119;29;20095;-82
2022/08/10 06:46:20;;;;;;;9.80;7.53;;;17.00;99.90;;;;;;4899202;29;20481;-82
2022/08/10 06:48:50;;;;;;;8.77;7.55;;;17.10;99.90;;;;;;4914480;29;20088;-81
2022/08/10 06:51:29;;;;;;;8.63;7.47;;;17.20;99.90;;;;;;4936982;23;20035;-85
2022/08/10 06:53:58;;;;;;;8.50;7.43;;;17.20;99.90;;;;;;4929502;29;20435;-82
2022/08/10 06:56:32;;;;;;;9.40;7.63;;;17.30;99.90;;;;;;4935071;29;20040;-85
2022/08/10 06:59:19;;;;;;;8.18;7.25;;;17.40;99.90;;;;;;4952556;29;20105;-81
2022/08/10 07:01:49;;;;;;;9.75;6.70;;;17.50;99.90;;;;;;4952380;28;20452;-81
2022/08/10 07:04:22;;;;;;;8.70;6.90;;;17.60;99.90;;;;;;4952755;29;20082;-83
2022/08/10 07:06:49;;;;;;;8.73;7.63;;;17.70;99.90;;;;;;4952104;29;20066;-83
2022/08/10 07:09:16;;;;;;;8.18;6.38;;;17.70;99.90;;;;;;4952275;29;20077;-86
2022/08/10 07:11:46;;;;;;;7.60;6.78;;;17.90;99.90;;;;;;4931227;29;20186;-86
2022/08/10 07:14:13;;;;;;;8.70;6.03;;;17.90;99.90;;;;;;4936600;29;20875;-86
2022/08/10 07:16:41;;;;;;;6.85;6.22;;;18.00;99.90;;;;;;4933413;29;20527;-87
2022/08/10 07:19:09;;;;;;;7.10;6.07;;;18.20;99.90;;;;;;4952192;29;20032;-87
2022/08/10 07:21:37;;;;;;;7.53;6.00;;;18.30;99.90;;;;;;4935725;29;20133;-86
2022/08/10 07:24:06;;;;;;;6.82;5.32;;;18.40;99.90;;;;;;4935455;29;20039;-86
2022/08/10 07:26:35;;;;;;;5.68;4.90;;;18.40;99.90;;;;;;4935625;29;20091;-84
2022/08/10 07:29:02;;;;;;;7.15;5.28;;;18.40;99.90;;;;;;4929583;29;20039;-86
2022/08/10 07:31:28;;;;;;;6.55;5.28;;;18.60;99.90;;;;;;4932435;29;20119;-87
2022/08/10 07:33:56;;;;;;;6.50;5.47;;;18.70;99.90;;;;;;4936369;29;20043;-85
2022/08/10 07:36:23;;;;;;;6.78;5.30;;;18.70;99.90;;;;;;4930254;29;20035;-86
2022/08/10 07:38:52;;;;;;;6.07;5.05;;;18.80;99.90;;;;;;4939903;28;20562;-88
2022/08/10 07:41:20;;;;;;;5.65;4.88;;;18.90;99.90;;;;;;4932865;29;20086;-85
2022/08/10 07:43:48;;;;;;;5.63;5.03;;;19.00;99.90;;;;;;4935234;29;20082;-86
2022/08/10 07:46:15;;;;;;;6.07;5.03;;;19.00;99.90;;;;;;4950498;29;20039;-83
2022/08/10 07:48:44;;;;;;;5.00;4.47;;;19.20;99.90;;;;;;4950553;29;20043;-85
2022/08/10 07:51:11;;;;;;;6.03;4.18;;;19.20;99.90;;;;;;4935017;29;20031;-86
2022/08/10 07:53:45;;;;;;;4.90;4.43;;;19.30;99.90;;;;;;4928099;29;20039;-85
2022/08/10 07:56:12;;;;;;;6.70;4.22;;;19.40;99.90;;;;;;4936297;29;20035;-86
2022/08/10 07:58:44;;;;;;;4.80;4.05;;;19.50;99.90;;;;;;4936047;29;20064;-85
2022/08/10 08:01:12;;;;;;;6.32;4.03;;;19.70;99.90;;;;;;4951554;28;20054;-85
2022/08/10 08:03:41;;;;;;;4.35;3.95;;;19.70;99.90;;;;;;4928282;29;20050;-86
2022/08/10 08:06:07;;;;;;;5.32;3.60;;;19.80;99.90;;;;;;4936304;29;20127;-85
2022/08/10 08:08:36;;;;;;;4.72;3.70;;;19.90;99.90;;;;;;4952111;28;20431;-85
2022/08/10 08:11:03;;;;;;;5.38;3.70;;;20.00;99.90;;;;;;4951156;28;20031;-84
2022/08/10 08:13:30;;;;;;;6.00;3.70;;;20.10;99.90;;;;;;4952425;28;20051;-85
2022/08/10 08:15:59;;;;;;;4.75;4.00;;;20.20;99.90;;;;;;4936491;29;20036;-83
2022/08/10 08:18:26;;;;;;;3.90;3.30;;;20.40;99.90;;;;;;4936430;29;20043;-84
2022/08/10 08:20:53;;;;;;;4.20;3.00;;;20.50;99.90;;;;;;4938247;29;20063;-85
2022/08/10 08:23:19;;;;;;;5.38;3.40;;;20.70;99.90;;;;;;4931499;29;20190;-86
2022/08/10 08:25:47;;;;;;;5.03;3.28;;;21.00;99.90;;;;;;4955365;29;20047;-85
2022/08/10 08:28:13;;;;;;;3.67;2.53;;;21.70;99.90;;;;;;4939226;29;20046;-85
2022/08/10 08:30:40;;;;;;;4.43;2.72;;;22.50;99.90;;;;;;4938530;29;20050;-87
2022/08/10 08:33:11;;;;;;;2.33;2.10;;;23.30;99.90;;;;;;4938827;29;20091;-85
2022/08/10 08:35:37;;;;;;;3.38;2.28;;;24.00;99.90;;;;;;4939215;29;20043;-82
2022/08/10 08:38:29;;;;;;;2.22;1.85;;;24.70;99.90;;;;;;4954966;29;20126;-87
2022/08/10 08:41:16;;;;;;;4.20;1.97;;;25.10;99.90;;;;;;4925070;29;20039;-86
2022/08/10 08:44:05;;;;;;;2.47;2.00;;;25.80;93.40;;;;;;4939023;29;20094;-85
2022/08/10 08:46:49;;;;;;;3.97;2.10;;;26.30;94.70;;;;;;4954399;29;20057;-86
2022/08/10 08:49:21;;;;;;;2.30;1.80;;;26.60;91.30;;;;;;4937988;29;20049;-84
2022/08/10 08:51:55;;;;;;;2.65;1.50;;;26.90;89.80;;;;;;4930732;29;20039;-85
2022/08/10 08:54:21;;;;;;;3.97;2.03;;;27.30;86.00;;;;;;4939121;29;20069;-86
2022/08/10 08:57:02;;;;;;;2.58;1.92;;;27.50;83.60;;;;;;4938982;29;20566;-85
2022/08/10 09:00:05;;;;;;;4.53;1.70;;;27.80;82.60;;;;;;4937918;28;20122;-85
2022/08/10 09:03:08;;;;;;;5.15;1.40;;;28.00;72.10;;;;;;4951568;29;20129;-86
2022/08/10 09:05:59;;;;;;;2.08;1.40;;;28.10;74.90;;;;;;4954849;28;20393;-85
2022/08/10 09:08:55;;;;;;;2.70;1.50;;;28.10;76.90;;;;;;4954680;28;20054;-89
2022/08/10 09:12:13;;;;;;;4.82;1.50;;;28.20;75.10;;;;;;4946908;28;20126;-84
2022/08/10 09:15:06;;;;;;;1.55;1.40;;;28.30;70.70;;;;;;4872670;29;20110;-82
2022/08/10 09:17:52;;;;;;;1.52;1.23;;;28.40;72.50;;;;;;4935138;29;20039;-83
2022/08/10 09:20:38;;;;;;;3.17;1.45;;;28.30;68.40;;;;;;4921005;29;20032;-83
2022/08/10 09:23:23;;;;;;;2.15;1.17;;;28.40;68.60;;;;;;4947746;29;20511;-82
2022/08/10 09:26:19;;;;;;;2.58;1.17;;;28.60;69.20;;;;;;4938301;29;20082;-83
2022/08/10 09:28:45;;;;;;;1.63;1.13;;;28.60;68.00;;;;;;4938082;29;20097;-82
2022/08/10 09:31:12;;;;;;;2.20;1.30;;;28.70;70.00;;;;;;4934145;29;20039;-83
2022/08/10 09:34:06;;;;;;;2.45;1.20;;;29.00;68.90;;;;;;4936767;29;20040;-81
2022/08/10 09:36:37;;;;;;;4.60;1.33;;;29.20;65.10;;;;;;4938271;29;20035;-81
2022/08/10 09:39:22;;;;;;;2.63;1.00;;;29.30;67.10;;;;;;4937909;29;20244;-82
2022/08/10 09:41:51;;;;;;;1.58;0.95;;;29.30;64.80;;;;;;4934169;29;20040;-83
2022/08/10 09:44:28;;;;;;;2.20;1.13;;;29.20;64.80;;;;;;4934874;29;20046;-83
2022/08/10 09:47:12;;;;;;;1.45;0.90;;;29.10;64.70;;;;;;4918945;29;20051;-81
2022/08/10 09:50:06;;;;;;;2.60;1.20;;;29.10;64.90;;;;;;4921172;28;20051;-82
2022/08/10 09:52:50;;;;;;;1.52;1.10;;;29.20;62.90;;;;;;4937687;29;20086;-83
2022/08/10 09:55:34;;;;;;;1.95;1.00;;;29.20;63.10;;;;;;4937868;29;20043;-81
2022/08/10 09:58:14;;;;;;;1.58;0.85;;;29.20;64.00;;;;;;4937695;29;20138;-81
2022/08/10 10:00:56;;;;;;;2.58;1.17;;;29.40;63.50;;;;;;4933664;29;20508;-83
2022/08/10 10:03:43;;;;;;;0.95;0.88;;;29.70;61.10;;;;;;4938484;29;20035;-83
2022/08/10 10:06:32;;;;;;;1.52;1.00;;;29.70;61.80;;;;;;4939031;28;20035;-83
2022/08/10 10:09:22;;;;;;;1.50;1.02;;;29.80;60.70;;;;;;4937587;29;20416;-84
2022/08/10 10:12:14;;;;;;;1.40;0.90;;;29.60;59.00;;;;;;4952764;29;20043;-82
2022/08/10 10:15:19;;;;;;;;;;;29.40;58.60;;;;;;4953802;29;20138;-83
2022/08/10 10:18:04;;;;;;;2.92;1.10;;;29.30;57.00;;;;;;4937135;29;19918;-83
2022/08/10 10:20:32;;;;;;;3.42;1.10;;;29.20;59.40;;;;;;4928688;29;20464;-81
2022/08/10 10:23:14;;;;;;;2.03;0.90;;;29.20;59.00;;;;;;4936480;29;20408;-83
2022/08/10 10:26:15;;;;;;;2.17;1.20;;;29.10;59.60;;;;;;4929528;29;20051;-82
2022/08/10 10:28:59;;;;;;;2.15;0.88;;;29.30;60.70;;;;;;4934895;29;20481;-83
2022/08/10 10:31:25;;;;;;;2.17;0.75;;;29.70;60.00;;;;;;4928716;29;20041;-82
2022/08/10 10:34:32;;;;;;;1.63;0.88;;;30.10;59.00;;;;;;4936362;29;20130;-81
2022/08/10 10:36:59;;;;;;;1.92;0.82;;;30.20;56.10;;;;;;4914523;29;20049;-82
2022/08/10 10:39:26;;;;;;;2.75;0.88;;;30.20;56.00;;;;;;4945792;29;20050;-80
2022/08/10 10:42:13;;;;;;;2.53;1.00;;;30.20;55.80;;;;;;4943908;29;20113;-82
2022/08/10 10:44:53;;;;;;;2.22;0.82;;;30.00;55.80;;;;;;4936904;29;20086;-83
2022/08/10 10:47:47;;;;;;;1.70;0.80;;;29.90;55.80;;;;;;4936893;29;20129;-81
2022/08/10 10:50:34;;;;;;;1.58;0.90;;;29.90;53.50;;;;;;4935848;29;20035;-80
2022/08/10 10:53:21;;;;;;;1.77;0.80;;;29.70;54.70;;;;;;4918043;29;20039;-82
2022/08/10 10:55:52;;;;;;;3.10;0.80;;;29.70;55.10;;;;;;4922227;29;20036;-82
2022/08/10 10:58:31;;;;;;;2.33;0.85;;;29.80;56.30;;;;;;4933373;29;20040;-81
2022/08/10 11:01:06;;;;;;;1.30;0.70;;;30.20;55.70;;;;;;4936533;29;20046;-82
2022/08/10 11:03:40;;;;;;;2.85;0.98;;;30.60;54.60;;;;;;4936977;29;20039;-81
2022/08/10 11:06:13;;;;;;;2.30;0.80;;;30.90;53.70;;;;;;4951742;29;20045;-81
2022/08/10 11:08:45;;;;;;;2.30;0.90;;;30.80;53.30;;;;;;4936376;28;20158;-82
2022/08/10 11:11:33;;;;;;;1.05;0.80;;;30.80;53.30;;;;;;4936597;29;20039;-82
2022/08/10 11:14:17;;;;;;;0.63;0.63;;;30.90;51.50;;;;;;4936568;29;20069;-82
2022/08/10 11:16:57;;;;;;;1.00;0.60;;;30.80;53.30;;;;;;4933855;29;20085;-82
2022/08/10 11:19:35;;;;;;;2.08;0.75;;;30.90;52.60;;;;;;4932719;29;20487;-82
2022/08/10 11:22:27;;;;;;;0.65;0.60;;;31.20;52.30;;;;;;4936439;29;20039;-82
2022/08/10 11:25:08;;;;;;;1.00;0.63;;;31.50;53.00;;;;;;4952821;29;20090;-81
2022/08/10 11:27:58;;;;;;;1.60;0.90;;;31.90;52.90;;;;;;4927616;29;20118;-82
2022/08/10 11:30:34;;;;;;;1.77;0.70;;;32.40;51.40;;;;;;4933441;29;20059;-81
2022/08/10 11:33:15;;;;;;;1.10;0.60;;;32.50;51.70;;;;;;4917303;29;20625;-82
2022/08/10 11:35:59;;;;;;;0.75;0.63;;;32.80;50.60;;;;;;4933476;29;20075;-82
2022/08/10 11:38:48;;;;;;;2.22;0.90;;;32.90;50.60;;;;;;4949853;28;20034;-82
2022/08/10 11:42:08;;;;;;;1.08;1.00;;;32.90;49.40;;;;;;4931137;29;20040;-83
2022/08/10 11:44:46;;;;;;;1.35;0.98;;;32.60;49.40;;;;;;4897337;29;20135;-82
2022/08/10 11:47:17;;;;;;;1.17;0.70;;;32.50;49.20;;;;;;4928902;29;20086;-81
2022/08/10 11:50:02;;;;;;;1.75;0.80;;;32.60;49.10;;;;;;4945815;29;20047;-82
2022/08/10 11:52:47;;;;;;;1.85;0.95;;;32.60;47.20;;;;;;4939479;29;20043;-81
2022/08/10 11:55:17;;;;;;;1.23;0.60;;;32.40;50.20;;;;;;4921187;29;20051;-82
2022/08/10 11:57:45;;;;;;;1.02;0.80;;;32.30;49.40;;;;;;4920732;29;20528;-82
2022/08/10 12:00:11;;;;;;;0.60;0.60;;;32.30;48.80;;;;;;4920891;29;20407;-83
2022/08/10 12:03:00;;;;;;;0.50;0.45;;;32.20;48.80;;;;;;4923189;29;20063;-83
2022/08/10 12:05:34;;;;;;;2.05;0.75;;;32.20;48.80;;;;;;4939027;29;20488;-82
2022/08/10 12:08:00;;;;;;;0.98;0.77;;;32.00;48.60;;;;;;4920401;29;20500;-82
2022/08/10 12:10:28;;;;;;;1.95;0.70;;;31.70;48.80;;;;;;4921062;29;20039;-82
2022/08/10 12:13:11;;;;;;;0.95;0.70;;;31.60;49.00;;;;;;4927074;29;20126;-82
2022/08/10 12:15:47;;;;;;;0.80;0.70;;;31.60;49.00;;;;;;4954755;29;20496;-81
2022/08/10 12:18:24;;;;;;;1.17;0.88;;;31.50;48.60;;;;;;4939267;29;20071;-81
2022/08/10 12:20:55;;;;;;;2.08;0.70;;;31.20;47.70;;;;;;4955386;28;20063;-81
2022/08/10 12:23:37;;;;;;;1.40;0.90;;;31.00;48.60;;;;;;4939343;29;20050;-83
2022/08/10 12:26:21;;;;;;;2.88;0.95;;;31.00;49.20;;;;;;4955479;28;20111;-82
2022/08/10 12:29:02;;;;;;;2.03;1.00;;;31.20;50.60;;;;;;4954564;29;20039;-82
2022/08/10 12:31:40;;;;;;;2.28;0.77;;;31.70;50.20;;;;;;4955123;28;20046;-82
2022/08/10 12:34:21;;;;;;;1.38;0.77;;;32.00;49.10;;;;;;4939522;29;20348;-79
2022/08/10 12:37:05;;;;;;;1.85;0.93;;;32.20;46.90;;;;;;4939366;29;20190;-82
2022/08/10 12:39:49;;;;;;;0.90;0.70;;;32.00;47.40;;;;;;4938618;28;20136;-80
2022/08/10 12:42:32;;;;;;;0.98;0.60;;;31.80;47.50;;;;;;4949442;28;20204;-82
2022/08/10 12:45:24;;;;;;;2.17;0.82;;;31.70;48.50;;;;;;4947629;29;20031;-80
2022/08/10 12:48:02;;;;;;;2.15;0.85;;;31.80;47.80;;;;;;4954382;29;20055;-81
2022/08/10 12:51:17;;;;;;;1.50;0.80;;;31.70;47.80;;;;;;4938708;29;20035;-82
2022/08/10 12:53:56;;;;;;;1.02;0.90;;;31.70;48.90;;;;;;4934091;29;20342;-82
2022/08/10 12:56:34;;;;;;;2.55;0.88;;;31.90;48.10;;;;;;4946851;29;20444;-82
2022/08/10 12:59:03;;;;;;;1.55;0.80;;;32.00;48.30;;;;;;4935217;29;20044;-81
2022/08/10 13:01:31;;;;;;;1.45;0.95;;;32.20;47.10;;;;;;4919548;29;20055;-80
2022/08/10 13:04:03;;;;;;;3.10;0.77;;;32.30;46.10;;;;;;4919894;29;20036;-80
2022/08/10 13:06:29;;;;;;;1.38;0.90;;;32.20;45.70;;;;;;4935911;29;20059;-81
2022/08/10 13:09:07;;;;;;;2.20;0.70;;;32.00;46.40;;;;;;4938760;29;20035;-83
2022/08/10 13:11:37;;;;;;;1.92;0.85;;;31.80;46.90;;;;;;4938299;29;20194;-82
2022/08/10 13:14:10;;;;;;;1.35;0.90;;;31.80;47.40;;;;;;4938849;29;20046;-83
2022/08/10 13:16:38;;;;;;;1.85;0.70;;;32.10;47.90;;;;;;4938499;29;20047;-82
2022/08/10 13:19:05;;;;;;;2.47;0.90;;;32.30;47.60;;;;;;4953373;29;20522;-82
2022/08/10 13:21:35;;;;;;;1.00;0.70;;;32.50;48.00;;;;;;4938142;29;20040;-81
2022/08/10 13:24:09;;;;;;;1.95;0.70;;;32.70;47.90;;;;;;4954472;28;20376;-82
2022/08/10 13:26:40;;;;;;;1.60;0.82;;;33.00;48.00;;;;;;4938350;29;20052;-81